createdAt,value
2023-02-09T00:00:33.535Z,75.9
2023-02-09T00:01:33.686Z,75
2023-02-09T00:02:34.077Z,76.6
2023-02-09T00:03:34.006Z,74.7
2023-02-09T00:04:33.909Z,73.9
2023-02-09T00:05:34.063Z,73.9
2023-02-09T00:06:34.242Z,74.1
2023-02-09T00:07:34.304Z,73.6
2023-02-09T00:08:33.952Z,73.7
2023-02-09T00:09:33.859Z,73.9
2023-02-09T00:10:34.145Z,74.5
2023-02-09T00:11:33.576Z,73.9
2023-02-09T00:12:33.789Z,73.7
2023-02-09T00:13:33.590Z,75.8
2023-02-09T00:14:34.437Z,75.1
2023-02-09T00:15:34.563Z,75.8
2023-02-09T00:16:34.889Z,77.2
2023-02-09T00:17:34.260Z,75.7
2023-02-09T00:18:33.740Z,76.4
2023-02-09T00:19:34.704Z,76.4
2023-02-09T00:20:34.331Z,76.5
2023-02-09T00:21:34.013Z,76.8
2023-02-09T00:22:34.622Z,77.6
2023-02-09T00:23:34.292Z,77.7
2023-02-09T00:24:34.374Z,77.7
2023-02-09T00:25:34.111Z,77.5
2023-02-09T00:26:34.291Z,77.8
2023-02-09T00:27:34.235Z,77.3
2023-02-09T00:28:34.398Z,76
2023-02-09T00:29:34.325Z,76.6
2023-02-09T00:30:33.556Z,77.6
2023-02-09T00:31:34.189Z,78.5
2023-02-09T00:32:33.937Z,78.7
2023-02-09T00:33:33.682Z,77.7
2023-02-09T00:34:34.148Z,77.5
2023-02-09T00:35:34.220Z,78.8
2023-02-09T00:36:34.054Z,79.2
2023-02-09T00:37:33.988Z,77.9
2023-02-09T00:38:33.510Z,78.9
2023-02-09T00:39:32.501Z,78.7
2023-02-09T00:40:34.922Z,81.9
2023-02-09T00:41:34.075Z,80.1
2023-02-09T00:42:33.529Z,79.9
2023-02-09T00:43:34.176Z,77.8
2023-02-09T00:44:34.381Z,77.4
2023-02-09T00:45:33.962Z,77.6
2023-02-09T00:46:34.004Z,76.6
2023-02-09T00:47:34.295Z,77.7
2023-02-09T00:48:33.495Z,77.4
2023-02-09T00:49:33.579Z,75.1
2023-02-09T00:50:33.972Z,75.8
2023-02-09T00:51:33.900Z,76.7
2023-02-09T00:52:34.354Z,77.4
2023-02-09T00:53:33.979Z,77.2
2023-02-09T00:54:34.327Z,78
2023-02-09T00:55:34.187Z,78.1
2023-02-09T00:56:33.529Z,78.6
2023-02-09T00:57:34.044Z,79.1
2023-02-09T00:58:34.014Z,77.8
2023-02-09T00:59:34.353Z,78.1
2023-02-09T01:00:35.188Z,77.1
2023-02-09T01:01:34.752Z,77.5
2023-02-09T01:02:33.969Z,78.4
2023-02-09T01:03:33.575Z,79.4
2023-02-09T01:04:34.156Z,81.4
2023-02-09T01:05:33.535Z,80.8
2023-02-09T01:06:34.943Z,81.2
2023-02-09T01:07:33.908Z,82
2023-02-09T01:08:33.902Z,81.6
2023-02-09T01:09:34.052Z,81.2
2023-02-09T01:10:33.518Z,81.3
2023-02-09T01:11:33.530Z,81.8
2023-02-09T01:12:34.119Z,82.1
2023-02-09T01:13:33.733Z,82.2
2023-02-09T01:14:34.375Z,82.9
2023-02-09T01:15:33.694Z,82.3
2023-02-09T01:16:33.870Z,82
2023-02-09T01:17:34.115Z,81.2
2023-02-09T01:18:33.565Z,81.8
2023-02-09T01:19:34.116Z,80.7
2023-02-09T01:20:33.557Z,81
2023-02-09T01:21:33.825Z,80.6
2023-02-09T01:22:34.139Z,80.5
2023-02-09T01:23:34.385Z,81.5
2023-02-09T01:24:32.602Z,80.9
2023-02-09T01:25:34.119Z,80.7
2023-02-09T01:26:35.994Z,80.8
2023-02-09T01:27:33.518Z,80.2
2023-02-09T01:28:34.150Z,79.7
2023-02-09T01:29:33.733Z,81
2023-02-09T01:30:33.662Z,81.7
2023-02-09T01:31:34.010Z,81.7
2023-02-09T01:32:34.329Z,82
2023-02-09T01:33:33.654Z,81.1
2023-02-09T01:34:33.665Z,81.7
2023-02-09T01:35:33.816Z,82.9
2023-02-09T01:36:34.540Z,81.3
2023-02-09T01:37:34.091Z,82.3
2023-02-09T01:38:34.786Z,83
2023-02-09T01:39:34.381Z,81.4
2023-02-09T01:40:33.926Z,81.7
2023-02-09T01:41:33.526Z,82.4
2023-02-09T01:42:34.419Z,82.8
2023-02-09T01:43:33.926Z,84
2023-02-09T01:44:34.471Z,82.4
2023-02-09T01:45:34.437Z,82.2
2023-02-09T01:46:33.977Z,81.1
2023-02-09T01:47:33.943Z,82.5
2023-02-09T01:48:33.776Z,82.5
2023-02-09T01:49:34.188Z,83.9
2023-02-09T01:50:34.802Z,83.1
2023-02-09T01:51:33.488Z,84.8
2023-02-09T01:52:34.699Z,85.9
2023-02-09T01:53:34.076Z,87.1
2023-02-09T01:54:33.853Z,87.4
2023-02-09T01:55:34.650Z,86.3
2023-02-09T01:56:33.508Z,86.8
2023-02-09T01:57:34.516Z,86.8
2023-02-09T01:58:33.525Z,87.4
2023-02-09T01:59:33.912Z,87.7
2023-02-09T02:00:34.795Z,85.8
2023-02-09T02:01:33.811Z,85.9
2023-02-09T02:02:34.392Z,84.7
2023-02-09T02:03:34.495Z,84.7
2023-02-09T02:04:34.468Z,84.4
2023-02-09T02:05:34.609Z,81.9
2023-02-09T02:06:33.925Z,82.1
2023-02-09T02:07:34.433Z,83.6
2023-02-09T02:08:33.680Z,85
2023-02-09T02:09:33.785Z,85.6
2023-02-09T02:10:33.546Z,85.6
2023-02-09T02:11:34.081Z,85.2
2023-02-09T02:12:33.923Z,83
2023-02-09T02:13:33.867Z,83.8
2023-02-09T02:14:34.332Z,82.9
2023-02-09T02:15:34.473Z,83.4
2023-02-09T02:16:33.991Z,84.7
2023-02-09T02:17:33.726Z,83.6
2023-02-09T02:18:33.540Z,84.3
2023-02-09T02:19:33.958Z,84.6
2023-02-09T02:20:34.097Z,83.4
2023-02-09T02:21:33.961Z,82.8
2023-02-09T02:22:34.035Z,85.4
2023-02-09T02:23:33.815Z,86.5
2023-02-09T02:24:34.237Z,85.5
2023-02-09T02:25:34.023Z,85.3
2023-02-09T02:26:33.902Z,85.3
2023-02-09T02:27:33.840Z,84.8
2023-02-09T02:28:34.529Z,85.5
2023-02-09T02:29:33.728Z,83.6
2023-02-09T02:30:33.525Z,85.2
2023-02-09T02:31:33.980Z,84.2
2023-02-09T02:32:34.617Z,84.7
2023-02-09T02:33:34.092Z,85.5
2023-02-09T02:34:33.544Z,83.9
2023-02-09T02:35:34.795Z,84.2
2023-02-09T02:36:34.016Z,87.6
2023-02-09T02:37:34.317Z,89.9
2023-02-09T02:38:33.527Z,90.5
2023-02-09T02:39:34.751Z,90.1
2023-02-09T02:40:33.586Z,88.3
2023-02-09T02:41:33.856Z,86.5
2023-02-09T02:42:34.203Z,86.7
2023-02-09T02:43:33.702Z,86.3
2023-02-09T02:44:34.398Z,87.9
2023-02-09T02:45:33.509Z,88.3
2023-02-09T02:46:33.581Z,87.9
2023-02-09T02:47:34.644Z,87.7
2023-02-09T02:48:33.869Z,87.9
2023-02-09T02:49:33.874Z,87.5
2023-02-09T02:50:33.935Z,86.8
2023-02-09T02:51:33.558Z,86
2023-02-09T02:52:34.060Z,86.3
2023-02-09T02:53:33.658Z,88.1
2023-02-09T02:54:34.238Z,87.9
2023-02-09T02:55:32.291Z,86.5
2023-02-09T02:56:34.493Z,86.3
2023-02-09T02:57:33.871Z,87.5
2023-02-09T02:58:34.227Z,85.9
2023-02-09T02:59:35.218Z,85.7
2023-02-09T03:00:35.580Z,86.9
2023-02-09T03:01:34.241Z,85.8
2023-02-09T03:02:34.312Z,86
2023-02-09T03:03:34.195Z,87.1
2023-02-09T03:04:33.969Z,86.7
2023-02-09T03:05:33.995Z,86.1
2023-02-09T03:06:34.378Z,86.9
2023-02-09T03:07:34.383Z,86.9
2023-02-09T03:08:33.858Z,88.1
2023-02-09T03:09:33.578Z,89.4
2023-02-09T03:10:34.137Z,90.1
2023-02-09T03:11:34.358Z,88.8
2023-02-09T03:12:33.990Z,87
2023-02-09T03:13:34.162Z,87
2023-02-09T03:14:33.503Z,87.2
2023-02-09T03:15:34.109Z,87.3
2023-02-09T03:16:34.173Z,87
2023-02-09T03:17:35.031Z,87.2
2023-02-09T03:18:33.954Z,88.1
2023-02-09T03:19:34.745Z,87.8
2023-02-09T03:20:33.868Z,86.6
2023-02-09T03:21:33.546Z,87
2023-02-09T03:22:34.475Z,87.5
2023-02-09T03:23:34.381Z,88.5
2023-02-09T03:24:34.226Z,87.6
2023-02-09T03:25:34.189Z,87.6
2023-02-09T03:26:34.053Z,90
2023-02-09T03:27:33.575Z,88.7
2023-02-09T03:28:34.019Z,86.8
2023-02-09T03:29:33.597Z,87.7
2023-02-09T03:30:34.639Z,86.1
2023-02-09T03:31:34.197Z,86.9
2023-02-09T03:32:34.007Z,88.1
2023-02-09T03:33:34.940Z,88.1
2023-02-09T03:34:34.380Z,89.2
2023-02-09T03:35:33.602Z,90.3
2023-02-09T03:36:33.995Z,89.7
2023-02-09T03:37:34.349Z,92.1
2023-02-09T03:38:34.213Z,92.8
2023-02-09T03:39:32.520Z,90.1
2023-02-09T03:40:34.365Z,88
2023-02-09T03:41:33.540Z,88.2
2023-02-09T03:42:35.714Z,87.9
2023-02-09T03:43:34.996Z,88.2
2023-02-09T03:44:33.788Z,89.6
2023-02-09T03:45:35.722Z,88.5
2023-02-09T03:46:34.460Z,87.5
2023-02-09T03:47:34.073Z,86.3
2023-02-09T03:48:34.338Z,86.1
2023-02-09T03:49:33.950Z,87.8
2023-02-09T03:50:33.506Z,89
2023-02-09T03:51:34.079Z,87.9
2023-02-09T03:52:33.857Z,88
2023-02-09T03:53:34.262Z,87.4
2023-02-09T03:54:34.137Z,87.9
2023-02-09T03:55:34.017Z,88.6
2023-02-09T03:56:33.663Z,90.7
2023-02-09T03:57:33.576Z,90.7
2023-02-09T03:58:34.265Z,90
2023-02-09T03:59:34.256Z,90.2
2023-02-09T04:00:34.251Z,90.8
2023-02-09T04:01:34.507Z,90.9
2023-02-09T04:02:34.304Z,90.7
2023-02-09T04:03:33.533Z,90
2023-02-09T04:04:33.771Z,88.9
2023-02-09T04:05:33.750Z,89
2023-02-09T04:06:33.833Z,90.3
2023-02-09T04:07:33.965Z,90.9
2023-02-09T04:08:34.085Z,89.7
2023-02-09T04:09:34.217Z,90
2023-02-09T04:10:34.261Z,88.6
2023-02-09T04:11:34.410Z,89
2023-02-09T04:12:33.970Z,89
2023-02-09T04:13:33.875Z,90.5
2023-02-09T04:14:34.521Z,90.5
2023-02-09T04:15:33.576Z,91.3
2023-02-09T04:16:34.376Z,90.9
2023-02-09T04:17:33.623Z,90.3
2023-02-09T04:18:34.797Z,91.1
2023-02-09T04:19:33.828Z,92.2
2023-02-09T04:20:35.041Z,90.9
2023-02-09T04:21:34.459Z,91
2023-02-09T04:22:34.371Z,89.8
2023-02-09T04:23:33.879Z,88.1
2023-02-09T04:24:33.815Z,88.2
2023-02-09T04:25:33.539Z,88.1
2023-02-09T04:26:35.003Z,88
2023-02-09T04:27:34.150Z,89
2023-02-09T04:28:34.298Z,88.5
2023-02-09T04:29:33.497Z,88.7
2023-02-09T04:30:34.060Z,89.3
2023-02-09T04:31:33.736Z,90.7
2023-02-09T04:32:33.531Z,91.6
2023-02-09T04:33:33.855Z,92.2
2023-02-09T04:34:34.391Z,90.3
2023-02-09T04:35:34.461Z,89.8
2023-02-09T04:36:33.891Z,89.3
2023-02-09T04:37:34.480Z,88.5
2023-02-09T04:38:34.268Z,89.1
2023-02-09T04:39:34.096Z,87.6
2023-02-09T04:40:34.750Z,88
2023-02-09T04:41:34.050Z,89.5
2023-02-09T04:42:33.992Z,90
2023-02-09T04:43:33.858Z,89.7
2023-02-09T04:44:34.137Z,90.5
2023-02-09T04:45:34.796Z,89.3
2023-02-09T04:46:34.005Z,89
2023-02-09T04:47:34.742Z,88.7
2023-02-09T04:48:34.959Z,88.7
2023-02-09T04:49:34.205Z,90.4
2023-02-09T04:50:34.007Z,91.1
2023-02-09T04:51:34.152Z,90.6
2023-02-09T04:52:34.494Z,91.2
2023-02-09T04:53:33.961Z,91
2023-02-09T04:54:33.826Z,91.7
2023-02-09T04:55:34.996Z,92.2
2023-02-09T04:56:34.068Z,92.1
2023-02-09T04:57:33.542Z,91.3
2023-02-09T04:58:33.974Z,91
2023-02-09T04:59:34.486Z,90.6
2023-02-09T05:00:33.945Z,91.3
2023-02-09T05:01:33.672Z,91.8
2023-02-09T05:02:34.149Z,92.4
2023-02-09T05:03:34.045Z,93.3
2023-02-09T05:04:34.131Z,93.4
2023-02-09T05:05:33.458Z,93
2023-02-09T05:06:33.509Z,93
2023-02-09T05:07:33.686Z,92.7
2023-02-09T05:08:34.139Z,92.2
2023-02-09T05:09:34.232Z,92.9
2023-02-09T05:10:32.676Z,91.8
2023-02-09T05:11:33.473Z,90.9
2023-02-09T05:12:33.536Z,91
2023-02-09T05:13:34.543Z,90.5
2023-02-09T05:14:33.870Z,90.4
2023-02-09T05:15:33.977Z,91.1
2023-02-09T05:16:33.560Z,91.3
2023-02-09T05:17:34.090Z,91.9
2023-02-09T05:18:34.274Z,91.9
2023-02-09T05:19:33.970Z,92.1
2023-02-09T05:20:34.427Z,92.5
2023-02-09T05:21:33.803Z,92.9
2023-02-09T05:22:33.846Z,92.9
2023-02-09T05:23:34.461Z,92.4
2023-02-09T05:24:33.467Z,90.9
2023-02-09T05:25:33.691Z,91.3
2023-02-09T05:26:34.319Z,92
2023-02-09T05:27:34.543Z,92.3
2023-02-09T05:28:33.890Z,92.8
2023-02-09T05:29:34.343Z,91.7
2023-02-09T05:30:34.240Z,91.9
2023-02-09T05:31:33.863Z,92
2023-02-09T05:32:34.343Z,92
2023-02-09T05:33:33.571Z,91.9
2023-02-09T05:34:34.131Z,93.1
2023-02-09T05:35:34.369Z,93.9
2023-02-09T05:36:35.579Z,93.7
2023-02-09T05:37:34.071Z,94
2023-02-09T05:38:34.941Z,93.5
2023-02-09T05:39:34.606Z,93.8
2023-02-09T05:40:36.768Z,93.5
2023-02-09T05:41:34.809Z,94.8
2023-02-09T05:42:34.313Z,95.1
2023-02-09T05:43:33.748Z,94.5
2023-02-09T05:44:34.138Z,95.4
2023-02-09T05:45:34.733Z,95.9
2023-02-09T05:46:34.003Z,96.1
2023-02-09T05:47:34.309Z,96.2
2023-02-09T05:48:34.499Z,95.3
2023-02-09T05:49:34.375Z,95.6
2023-02-09T05:50:33.778Z,95.9
2023-02-09T05:51:33.539Z,96.3
2023-02-09T05:52:33.970Z,95.5
2023-02-09T05:53:34.224Z,95.7
2023-02-09T05:54:33.842Z,94.8
2023-02-09T05:55:32.366Z,93.9
2023-02-09T05:56:34.394Z,94.8
2023-02-09T05:57:34.185Z,94.9
2023-02-09T05:58:34.004Z,95
2023-02-09T05:59:33.906Z,95.4
2023-02-09T06:00:33.888Z,96
2023-02-09T06:01:34.084Z,95.7
2023-02-09T06:02:34.448Z,94.3
2023-02-09T06:03:33.627Z,95.7
2023-02-09T06:04:34.489Z,95.4
2023-02-09T06:05:33.558Z,95.8
2023-02-09T06:06:34.193Z,95.9
2023-02-09T06:07:34.016Z,95.8
2023-02-09T06:08:33.679Z,96.2
2023-02-09T06:09:33.967Z,96.7
2023-02-09T06:10:33.956Z,96.4
2023-02-09T06:11:34.476Z,95.8
2023-02-09T06:12:34.127Z,95.4
2023-02-09T06:13:34.016Z,96
2023-02-09T06:14:34.114Z,96.1
2023-02-09T06:15:34.345Z,95.2
2023-02-09T06:16:33.521Z,95.2
2023-02-09T06:17:34.057Z,95
2023-02-09T06:18:34.128Z,94.8
2023-02-09T06:19:33.557Z,94.7
2023-02-09T06:20:34.383Z,95.1
2023-02-09T06:21:33.933Z,95.6
2023-02-09T06:22:33.970Z,96.8
2023-02-09T06:23:35.340Z,97.7
2023-02-09T06:24:33.788Z,97.8
2023-02-09T06:25:33.975Z,97.6
2023-02-09T06:26:34.066Z,97.4
2023-02-09T06:27:33.724Z,97.8
2023-02-09T06:28:33.917Z,98.1
2023-02-09T06:29:34.008Z,98.4
2023-02-09T06:30:34.336Z,98.2
2023-02-09T06:31:34.497Z,98
2023-02-09T06:32:33.537Z,97.7
2023-02-09T06:33:34.025Z,97.7
2023-02-09T06:34:34.009Z,97.9
2023-02-09T06:35:33.768Z,97.7
2023-02-09T06:36:34.795Z,96.3
2023-02-09T06:37:34.093Z,96.5
2023-02-09T06:38:33.618Z,98.2
2023-02-09T06:39:34.358Z,98.7
2023-02-09T06:40:33.505Z,98.7
2023-02-09T06:41:33.809Z,98.1
2023-02-09T06:42:33.721Z,97.7
2023-02-09T06:43:33.944Z,98.1
2023-02-09T06:44:34.882Z,98.3
2023-02-09T06:45:33.613Z,98.6
2023-02-09T06:46:33.960Z,98.5
2023-02-09T06:47:33.525Z,97.9
2023-02-09T06:48:33.531Z,97
2023-02-09T06:49:36.124Z,97.5
2023-02-09T06:50:33.502Z,97.8
2023-02-09T06:51:33.566Z,97.4
2023-02-09T06:52:34.751Z,97.2
2023-02-09T06:53:34.534Z,97.6
2023-02-09T06:54:35.144Z,97.8
2023-02-09T06:55:33.929Z,98
2023-02-09T06:56:33.947Z,98.3
2023-02-09T06:57:33.802Z,98.1
2023-02-09T06:58:34.645Z,97.4
2023-02-09T06:59:33.833Z,96.2
2023-02-09T07:00:33.968Z,95.6
2023-02-09T07:01:34.122Z,95.7
2023-02-09T07:02:32.943Z,95.1
2023-02-09T07:03:34.403Z,95.2
2023-02-09T07:04:34.202Z,95.7
2023-02-09T07:05:34.282Z,96.5
2023-02-09T07:06:33.541Z,95.6
2023-02-09T07:07:33.958Z,95
2023-02-09T07:08:33.458Z,95.1
2023-02-09T07:09:33.727Z,95.6
2023-02-09T07:10:34.155Z,95.6
2023-02-09T07:11:33.846Z,94.9
2023-02-09T07:12:34.088Z,94.3
2023-02-09T07:13:33.947Z,93.7
2023-02-09T07:14:33.495Z,94.3
2023-02-09T07:15:34.164Z,94.3
2023-02-09T07:16:34.294Z,94.3
2023-02-09T07:17:33.917Z,94.6
2023-02-09T07:18:33.760Z,94
2023-02-09T07:19:33.666Z,93.8
2023-02-09T07:20:33.449Z,93.5
2023-02-09T07:21:33.486Z,93.3
2023-02-09T07:22:33.460Z,94.3
2023-02-09T07:23:33.551Z,93.7
2023-02-09T07:24:34.418Z,93.1
2023-02-09T07:25:33.736Z,93.4
2023-02-09T07:26:33.677Z,93.3
2023-02-09T07:27:34.576Z,93.5
2023-02-09T07:28:33.530Z,93.1
2023-02-09T07:29:33.433Z,92.6
2023-02-09T07:30:33.833Z,92.2
2023-02-09T07:31:34.848Z,92.3
2023-02-09T07:32:33.819Z,91.8
2023-02-09T07:33:33.618Z,91.4
2023-02-09T07:34:34.038Z,89.9
2023-02-09T07:35:33.762Z,90.3
2023-02-09T07:36:33.732Z,91.1
2023-02-09T07:37:34.273Z,91.5
2023-02-09T07:38:34.053Z,90.7
2023-02-09T07:39:34.384Z,90.7
2023-02-09T07:40:33.943Z,90.2
2023-02-09T07:41:33.993Z,88.7
2023-02-09T07:42:34.093Z,89.5
2023-02-09T07:43:33.855Z,89
2023-02-09T07:44:34.537Z,88.6
2023-02-09T07:45:34.349Z,87.8
2023-02-09T07:46:33.561Z,88.1
2023-02-09T07:47:33.964Z,88.7
2023-02-09T07:48:34.669Z,89
2023-02-09T07:49:34.103Z,88.6
2023-02-09T07:50:34.086Z,88.6
2023-02-09T07:51:34.404Z,88.8
2023-02-09T07:52:33.457Z,87.9
2023-02-09T07:53:33.936Z,88.6
2023-02-09T07:54:35.894Z,89.1
2023-02-09T07:55:34.696Z,87.6
2023-02-09T07:56:33.977Z,87.1
2023-02-09T07:57:34.129Z,87.2
2023-02-09T07:58:34.042Z,87.3
2023-02-09T07:59:33.773Z,87.2
2023-02-09T08:00:34.420Z,86.7
2023-02-09T08:01:34.522Z,85.3
2023-02-09T08:02:33.748Z,85.5
2023-02-09T08:03:34.015Z,85.3
2023-02-09T08:04:33.940Z,84.9
2023-02-09T08:05:34.088Z,84.4
2023-02-09T08:06:41.956Z,84.4
2023-02-09T08:07:33.800Z,84.3
2023-02-09T08:08:33.849Z,84.4
2023-02-09T08:09:32.301Z,83.5
2023-02-09T08:10:34.944Z,83.1
2023-02-09T08:11:32.421Z,82.6
2023-02-09T08:12:33.768Z,83.1
2023-02-09T08:13:33.928Z,83.6
2023-02-09T08:14:33.436Z,83.4
2023-02-09T08:15:34.778Z,81.9
2023-02-09T08:16:33.949Z,80.5
2023-02-09T08:17:33.879Z,80.9
2023-02-09T08:18:34.187Z,81
2023-02-09T08:19:33.701Z,81.5
2023-02-09T08:20:33.515Z,82.1
2023-02-09T08:21:33.991Z,80.9
2023-02-09T08:22:33.626Z,80.4
2023-02-09T08:23:34.317Z,81.3
2023-02-09T08:24:34.322Z,80.3
2023-02-09T08:25:33.544Z,80
2023-02-09T08:26:33.923Z,79.7
2023-02-09T08:27:34.042Z,79
2023-02-09T08:28:43.581Z,78.9
2023-02-09T08:29:33.976Z,80
2023-02-09T08:30:34.299Z,80.8
2023-02-09T08:31:33.977Z,81
2023-02-09T08:32:34.590Z,80.5
2023-02-09T08:33:33.095Z,80.2
2023-02-09T08:34:34.045Z,79.1
2023-02-09T08:35:35.625Z,79
2023-02-09T08:36:34.204Z,79
2023-02-09T08:37:33.522Z,78.6
2023-02-09T08:38:34.278Z,78.6
2023-02-09T08:39:33.829Z,78.9
2023-02-09T08:40:33.428Z,78.2
2023-02-09T08:41:34.437Z,77.3
2023-02-09T08:42:34.305Z,77.4
2023-02-09T08:43:33.473Z,77.3
2023-02-09T08:44:33.464Z,78
2023-02-09T08:45:33.844Z,77.5
2023-02-09T08:46:33.927Z,78.1
2023-02-09T08:47:33.779Z,78.2
2023-02-09T08:48:35.746Z,76.6
2023-02-09T08:49:34.015Z,76
2023-02-09T08:50:34.700Z,76.1
2023-02-09T08:51:33.440Z,76.5
2023-02-09T08:52:33.618Z,75.7
2023-02-09T08:53:33.996Z,74.8
2023-02-09T08:54:33.522Z,74.9
2023-02-09T08:55:33.774Z,74.3
2023-02-09T08:56:33.124Z,74.4
2023-02-09T08:57:43.445Z,74.5
2023-02-09T08:58:33.822Z,74.6
2023-02-09T08:59:33.983Z,75.5
2023-02-09T09:00:34.116Z,73.9
2023-02-09T09:01:34.127Z,75
2023-02-09T09:02:33.889Z,74.6
2023-02-09T09:03:34.336Z,75.4
2023-02-09T09:04:33.867Z,75.8
2023-02-09T09:05:34.467Z,75.6
2023-02-09T09:06:33.562Z,74.8
2023-02-09T09:07:34.737Z,74.5
2023-02-09T09:08:34.266Z,74.3
2023-02-09T09:09:34.181Z,73.7
2023-02-09T09:10:33.469Z,73.3
2023-02-09T09:11:33.877Z,72.5
2023-02-09T09:12:33.468Z,71.7
2023-02-09T09:13:33.810Z,69.9
2023-02-09T09:14:33.649Z,71.3
2023-02-09T09:15:33.914Z,71.1
2023-02-09T09:16:33.845Z,70.8
2023-02-09T09:17:33.459Z,71.3
2023-02-09T09:19:34.601Z,71
2023-02-09T09:20:33.448Z,69.9
2023-02-09T09:21:34.442Z,70.5
2023-02-09T09:22:34.085Z,69.3
2023-02-09T09:23:34.222Z,69.3
2023-02-09T09:24:33.616Z,68.1
2023-02-09T09:25:33.437Z,66.3
2023-02-09T09:26:33.634Z,68
2023-02-09T09:27:34.670Z,66.1
2023-02-09T09:28:33.775Z,66.7
2023-02-09T09:29:34.358Z,66.1
2023-02-09T09:30:34.620Z,66.2
2023-02-09T09:31:35.281Z,66.9
2023-02-09T09:32:34.275Z,67.1
2023-02-09T09:33:33.486Z,66.3
2023-02-09T09:34:33.740Z,67.9
2023-02-09T09:35:34.594Z,67
2023-02-09T09:36:33.593Z,66.2
2023-02-09T09:37:33.910Z,67.3
2023-02-09T09:38:33.538Z,67.3
2023-02-09T09:39:34.952Z,67.4
2023-02-09T09:40:33.212Z,67.3
2023-02-09T09:41:34.486Z,68.4
2023-02-09T09:42:34.411Z,67
2023-02-09T09:43:33.418Z,66.3
2023-02-09T09:44:34.125Z,67.5
2023-02-09T09:45:33.427Z,66.8
2023-02-09T09:46:33.602Z,64.1
2023-02-09T09:47:34.134Z,65.4
2023-02-09T09:48:34.182Z,65.8
2023-02-09T09:49:33.569Z,66.8
2023-02-09T09:50:34.125Z,66.8
2023-02-09T09:51:34.253Z,67.5
2023-02-09T09:52:33.870Z,67.9
2023-02-09T09:53:34.532Z,66.1
2023-02-09T09:54:33.487Z,66.6
2023-02-09T09:55:33.513Z,65.6
2023-02-09T09:56:33.505Z,64.1
2023-02-09T09:57:34.083Z,64.6
2023-02-09T09:58:33.693Z,65.6
2023-02-09T09:59:33.896Z,66
2023-02-09T10:00:33.963Z,65.4
2023-02-09T10:01:34.022Z,64.3
2023-02-09T10:02:34.470Z,63.9
2023-02-09T10:03:33.665Z,63.6
2023-02-09T10:04:34.474Z,66.1
2023-02-09T10:05:34.059Z,64.6
2023-02-09T10:06:33.983Z,65
2023-02-09T10:07:34.716Z,64.2
2023-02-09T10:08:34.499Z,64.3
2023-02-09T10:09:35.194Z,64.1
2023-02-09T10:10:34.572Z,62.8
2023-02-09T10:11:33.425Z,62
2023-02-09T10:12:34.110Z,62.1
2023-02-09T10:13:34.449Z,61.6
2023-02-09T10:14:33.569Z,62.8
2023-02-09T10:15:33.649Z,60.5
2023-02-09T10:16:34.836Z,62.5
2023-02-09T10:17:33.891Z,60.7
2023-02-09T10:18:33.954Z,61.6
2023-02-09T10:19:33.469Z,62.3
2023-02-09T10:20:33.864Z,63.6
2023-02-09T10:21:34.106Z,62.4
2023-02-09T10:22:33.497Z,61.7
2023-02-09T10:23:33.427Z,62.2
2023-02-09T10:24:33.224Z,60.4
2023-02-09T10:26:34.013Z,58.7
2023-02-09T10:27:33.501Z,61.4
2023-02-09T10:28:34.565Z,60.1
2023-02-09T10:29:34.165Z,58.9
2023-02-09T10:30:34.035Z,58.7
2023-02-09T10:31:34.385Z,60.1
2023-02-09T10:32:33.530Z,60.3
2023-02-09T10:33:35.572Z,60.3
2023-02-09T10:34:33.619Z,58.8
2023-02-09T10:35:34.115Z,57.8
2023-02-09T10:36:33.623Z,58.7
2023-02-09T10:37:33.420Z,59.6
2023-02-09T10:38:34.718Z,58.8
2023-02-09T10:39:33.472Z,59.3
2023-02-09T10:40:33.822Z,58.2
2023-02-09T10:41:33.492Z,59.9
2023-02-09T10:42:34.250Z,59.4
2023-02-09T10:43:33.604Z,57.7
2023-02-09T10:44:33.568Z,59.9
2023-02-09T10:45:33.850Z,59.9
2023-02-09T10:46:33.493Z,57.5
2023-02-09T10:47:33.896Z,57.7
2023-02-09T10:48:32.439Z,59.9
2023-02-09T10:49:33.472Z,57.5
2023-02-09T10:50:33.511Z,58.2
2023-02-09T10:51:34.333Z,57
2023-02-09T10:52:34.314Z,57.8
2023-02-09T10:53:34.131Z,55.7
2023-02-09T10:54:34.148Z,57.5
2023-02-09T10:55:33.841Z,56
2023-02-09T10:56:33.864Z,55
2023-02-09T10:57:34.561Z,53.2
2023-02-09T10:58:33.784Z,52.2
2023-02-09T10:59:33.439Z,51.9
2023-02-09T11:00:33.554Z,51.1
2023-02-09T11:01:33.986Z,51.5
2023-02-09T11:02:34.426Z,51.9
2023-02-09T11:03:33.854Z,52
2023-02-09T11:04:33.570Z,53.1
2023-02-09T11:05:34.273Z,52.7
2023-02-09T11:06:33.442Z,51.3
2023-02-09T11:07:34.254Z,52.2
2023-02-09T11:08:33.426Z,52.1
2023-02-09T11:09:33.895Z,52
2023-02-09T11:10:33.574Z,54.1
2023-02-09T11:11:33.935Z,54
2023-02-09T11:12:33.831Z,51.9
2023-02-09T11:13:34.921Z,52.5
2023-02-09T11:14:33.842Z,50.8
2023-02-09T11:15:33.750Z,50.5
2023-02-09T11:16:33.518Z,50.5
2023-02-09T11:17:34.350Z,51.1
2023-02-09T11:18:34.879Z,52
2023-02-09T11:19:34.128Z,53.1
2023-02-09T11:20:33.840Z,52.8
2023-02-09T11:21:33.424Z,52.4
2023-02-09T11:22:34.083Z,51.3
2023-02-09T11:23:33.866Z,50.6
2023-02-09T11:24:34.276Z,50.3
2023-02-09T11:25:33.572Z,50.5
2023-02-09T11:26:33.735Z,50.8
2023-02-09T11:27:33.419Z,50.8
2023-02-09T11:28:33.618Z,50.6
2023-02-09T11:29:33.418Z,52.5
2023-02-09T11:30:34.550Z,52.7
2023-02-09T11:31:34.243Z,50.9
2023-02-09T11:33:33.534Z,50.4
2023-02-09T11:34:33.647Z,51
2023-02-09T11:35:34.311Z,51
2023-02-09T11:36:34.322Z,49.8
2023-02-09T11:37:34.162Z,50
2023-02-09T11:38:33.405Z,49.1
2023-02-09T11:39:33.762Z,48.7
2023-02-09T11:40:34.188Z,49.8
2023-02-09T11:41:33.941Z,48.3
2023-02-09T11:42:35.030Z,47.1
2023-02-09T11:43:33.517Z,47.4
2023-02-09T11:44:33.879Z,47.6
2023-02-09T11:45:33.634Z,47.4
2023-02-09T11:46:34.116Z,46.7
2023-02-09T11:47:34.614Z,46.4
2023-02-09T11:48:33.406Z,46.6
2023-02-09T11:49:33.798Z,44.6
2023-02-09T11:50:33.560Z,44.6
2023-02-09T11:51:34.099Z,45
2023-02-09T11:52:35.974Z,44.2
2023-02-09T11:53:34.206Z,43.3
2023-02-09T11:54:33.902Z,43.9
2023-02-09T11:55:33.788Z,45.1
2023-02-09T11:56:33.466Z,42.6
2023-02-09T11:57:34.614Z,43.7
2023-02-09T11:58:34.759Z,43.7
2023-02-09T11:59:33.857Z,44
2023-02-09T12:00:35.013Z,43.2
2023-02-09T12:01:34.306Z,42.9
2023-02-09T12:02:33.515Z,41.9
2023-02-09T12:03:34.677Z,44.1
2023-02-09T12:04:33.862Z,43.3
2023-02-09T12:05:34.081Z,43.4
2023-02-09T12:06:34.424Z,44.4
2023-02-09T12:07:34.939Z,43.8
2023-02-09T12:08:34.384Z,42.2
2023-02-09T12:09:33.746Z,41.9
2023-02-09T12:10:34.669Z,41.5
2023-02-09T12:11:34.238Z,41.1
2023-02-09T12:12:33.474Z,41.5
2023-02-09T12:13:33.742Z,40.3
2023-02-09T12:14:34.364Z,41.2
2023-02-09T12:15:33.759Z,39.9
2023-02-09T12:16:34.354Z,42.1
2023-02-09T12:17:34.098Z,41.3
2023-02-09T12:18:34.286Z,38.6
2023-02-09T12:19:33.610Z,40.3
2023-02-09T12:20:33.764Z,39.3
2023-02-09T12:21:34.247Z,41.1
2023-02-09T12:22:34.215Z,39.7
2023-02-09T12:23:34.241Z,38.2
2023-02-09T12:24:34.031Z,38.4
2023-02-09T12:25:34.057Z,38.6
2023-02-09T12:26:34.057Z,39
2023-02-09T12:27:34.080Z,40.1
2023-02-09T12:28:33.712Z,40
2023-02-09T12:29:33.491Z,40.1
2023-02-09T12:30:33.616Z,38.8
2023-02-09T12:31:34.588Z,39.8
2023-02-09T12:32:34.348Z,39.2
2023-02-09T12:33:34.277Z,38.5
2023-02-09T12:34:33.919Z,38
2023-02-09T12:35:33.955Z,38.8
2023-02-09T12:36:34.473Z,39.4
2023-02-09T12:37:33.684Z,40.2
2023-02-09T12:38:32.877Z,38.8
2023-02-09T12:39:34.426Z,40.4
2023-02-09T12:40:33.916Z,40.8
2023-02-09T12:41:33.440Z,39.8
2023-02-09T12:42:33.793Z,38.5
2023-02-09T12:43:34.480Z,39
2023-02-09T12:44:33.576Z,37.6
2023-02-09T12:45:34.298Z,37.2
2023-02-09T12:46:34.393Z,38.1
2023-02-09T12:47:35.752Z,36.3
2023-02-09T12:48:34.572Z,36.5
2023-02-09T12:49:33.598Z,37.3
2023-02-09T12:50:34.619Z,36.8
2023-02-09T12:51:33.897Z,37.1
2023-02-09T12:52:34.282Z,35.1
2023-02-09T12:53:33.772Z,36.6
2023-02-09T12:54:33.641Z,36.2
2023-02-09T12:55:33.422Z,36.6
2023-02-09T12:56:33.873Z,35.9
2023-02-09T12:57:33.434Z,35.5
2023-02-09T12:58:33.685Z,36.2
2023-02-09T12:59:33.619Z,36.9
2023-02-09T13:00:33.466Z,36.4
2023-02-09T13:01:33.491Z,34.8
2023-02-09T13:02:34.472Z,34.8
2023-02-09T13:03:34.094Z,34.4
2023-02-09T13:04:33.802Z,34.1
2023-02-09T13:05:33.496Z,33.9
2023-02-09T13:06:33.977Z,35.3
2023-02-09T13:07:33.928Z,34
2023-02-09T13:08:33.730Z,32.6
2023-02-09T13:09:34.188Z,33.6
2023-02-09T13:10:34.060Z,33.5
2023-02-09T13:11:33.549Z,33.2
2023-02-09T13:12:33.982Z,33.3
2023-02-09T13:13:33.636Z,32
2023-02-09T13:14:33.892Z,33.6
2023-02-09T13:15:34.466Z,33.8
2023-02-09T13:16:34.743Z,32.5
2023-02-09T13:17:34.298Z,34.1
2023-02-09T13:18:34.946Z,32.9
2023-02-09T13:19:46.010Z,32.6
2023-02-09T13:20:34.477Z,30.9
2023-02-09T13:21:34.275Z,31
2023-02-09T13:22:34.283Z,32
2023-02-09T13:23:32.316Z,30.5
2023-02-09T13:24:34.076Z,33.2
2023-02-09T13:25:34.243Z,30.7
2023-02-09T13:26:33.926Z,32.1
2023-02-09T13:27:34.059Z,31.7